• Join FlightAware (Why Join?)
  • Login
  • US Flag 
02:35PM EST


 

Airport Tracker/Info


-or-


 

Live Flight TrackerFlight Track Log ✈ QXE2086 ✈ 12-Aug-2014 ✈ KSEA - KALW

Flight Track Log - Related Links

Times and Time Zones

All times are in EDT time to prevent confusion due to time zone crossing. See the QXE2086 flight status page for this flight to view local times or setup timezone preferences in your user account.

Time Position Orientation Groundspeed Altitude Reporting Facility
EDT Latitude Longitude Course Direction KTS MPH feet Rate Location/Type
11:36PM 47.2344 -123.0779 254° West  Level FlightAware Approximate
11:37PM 47.2051 -123.1894 249° West  Level FlightAware Approximate
11:38PM 47.1754 -123.3007 249° West  Level FlightAware Approximate
11:39PM 47.1323 -123.3994 158° South  Level FlightAware Approximate
11:40PM 47.0571 -123.3542 158° South  Level FlightAware Approximate
11:41PM 46.9817 -123.3100 158° South  Level FlightAware Approximate
11:42PM 46.9062 -123.2660 158° South  Level FlightAware Approximate
11:43PM 46.8308 -123.2218 158° South  Level FlightAware Approximate
11:44PM 46.7826 -123.1285 127° Southeast  Level FlightAware Approximate
11:45PM 46.7689 -123.0136 161° South  Level Estimated
11:46PM 46.7550 -122.8986 162° South  Level Estimated
11:47PM 46.6804 -122.8755 168° South  Level FlightAware Approximate
11:48PM 46.6059 -122.8524 168° South  Level FlightAware Approximate
11:49PM 46.5313 -122.8293 168° South  Level FlightAware Approximate
11:50PM 46.4568 -122.8063 168° South  Level FlightAware Approximate
11:51PM 46.3822 -122.7834 168° South  Level FlightAware Approximate
11:52PM 46.3076 -122.7606 168° South  Level FlightAware Approximate
11:53PM 46.2331 -122.7378 168° South  Level FlightAware Approximate
11:54PM 46.1555 -122.7141 168° South  Level FlightAware Approximate
11:55PM 46.0775 -122.6904 168° South  Level FlightAware Approximate
11:56PM 45.9994 -122.6668 168° South  Level FlightAware Approximate
11:57PM 45.9214 -122.6432 168° South  Level FlightAware Approximate
11:58PM 45.8433 -122.6197 168° South  Level FlightAware Approximate
11:59PM 45.7656 -122.5941 167° South  Level FlightAware Approximate
12:00AM 45.7335 -122.5166 90° East  Level FlightAware Approximate
12:01AM 45.7338 -122.4023 90° East  Level FlightAware Approximate
12:02AM 45.7339 -122.2881 90° East  Level FlightAware Approximate
12:03AM 45.7339 -122.1738 90° East  Level FlightAware Approximate
12:04AM 45.7338 -122.0596 90° East  Level FlightAware Approximate
12:05AM 45.7336 -121.9454 90° East  Level FlightAware Approximate
12:06AM 45.7497 -121.8291 79° East  Level FlightAware Approximate
12:07AM 45.7658 -121.7128 79° East  Level FlightAware Approximate
12:08AM 45.7817 -121.5964 79° East  Level FlightAware Approximate
12:09AM 45.7975 -121.4800 79° East  Level FlightAware Approximate
12:10AM 45.8132 -121.3634 79° East  Level FlightAware Approximate
12:11AM 45.8287 -121.2469 79° East  Level FlightAware Approximate
12:12AM 45.8442 -121.1302 79° East  Level FlightAware Approximate
12:13AM 45.8595 -121.0135 79° East  Level FlightAware Approximate
12:14AM 45.8747 -120.8968 79° East  Level FlightAware Approximate
12:15AM 45.8899 -120.7790 79° East  Level FlightAware Approximate
12:16AM 45.9035 -120.6608 83° East  Level FlightAware Approximate
12:17AM 45.9139 -120.5419 83° East  Level FlightAware Approximate
12:18AM 45.9242 -120.4230 83° East  Level FlightAware Approximate
12:19AM 45.9358 -120.3045 74° East  Level FlightAware Approximate
12:20AM 45.9531 -120.1876 84° East  Level FlightAware Approximate
12:21AM 45.9611 -120.0683 84° East  Level FlightAware Approximate
12:22AM 45.9695 -119.9489 83° East  Level FlightAware Approximate
12:23AM 45.9794 -119.8298 83° East  Level FlightAware Approximate
12:24AM 45.9892 -119.7107 83° East  Level FlightAware Approximate
12:25AM 45.9988 -119.5915 83° East  Level FlightAware Approximate
12:26AM 46.0084 -119.4722 83° East  Level FlightAware Approximate
12:27AM 46.0167 -119.3528 90° East  Level FlightAware Approximate
12:28AM 46.0251 -119.2334 84° East  Level FlightAware Approximate
12:29AM 46.0335 -119.1139 86° East  Level FlightAware Approximate
12:30AM 46.0399 -118.9942 86° East  Level FlightAware Approximate
12:31AM 46.0462 -118.8744 86° East  Level FlightAware Approximate
12:32AM 46.0541 -118.7549 82° East  Level FlightAware Approximate
12:33AM 46.0649 -118.6357 83° East  Level FlightAware Approximate
12:34AM 46.0667 -118.5157 90° East  Level FlightAware Approximate
12:35AM 46.0726 -118.3922 78° East  Level FlightAware Approximate
12:36AM 46.0833 -118.2833 North  Level FlightAware Approximate
12:37AM 46.0948 -118.2890 North  Level Estimated
12:38AM 46.0948 -118.2890 North  Level Estimated
12:39AM 46.0948 -118.2890 North  Level Estimated
12:40AM 46.0948 -118.2890 North  Level Estimated
12:41AM 46.0948 -118.2890 North  Level Estimated